Time;durP1;ratioP1;P1;durP2;ratioP2;P2;SDS_P1;SDS_P2;PMS_P1;PMS_P2;Temp;Humidity;BMP_temperature;BMP_pressure;BME280_temperature;BME280_humidity;BME280_pressure;Samples;Min_cycle;Max_cycle;Signal;HPM_P1;HPM_P2
2023/02/12 00:04:35;;;;;;;15.03;10.13;;;8.30;99.90;;;;;;6232554;22;20057;-80
2023/02/12 00:07:08;;;;;;;12.07;9.97;;;8.30;99.90;;;;;;6244272;22;39785;-80
2023/02/12 00:09:40;;;;;;;12.27;9.73;;;8.30;99.90;;;;;;6238476;22;50167;-80
2023/02/12 00:12:12;;;;;;;15.43;10.20;;;8.20;99.90;;;;;;6241743;22;37847;-79
2023/02/12 00:15:02;;;;;;;10.48;8.18;;;8.30;99.90;;;;;;6227317;23;38056;-80
2023/02/12 00:17:36;;;;;;;12.73;8.87;;;8.30;99.90;;;;;;6231696;22;47431;-80
2023/02/12 00:20:07;;;;;;;12.47;8.90;;;8.30;99.90;;;;;;6258954;22;39423;-80
2023/02/12 00:22:38;;;;;;;12.70;9.50;;;8.30;99.90;;;;;;6240188;22;48637;-81
2023/02/12 00:25:12;;;;;;;15.50;9.50;;;8.30;99.90;;;;;;6264714;22;39557;-80
2023/02/12 00:27:49;;;;;;;13.67;10.03;;;8.30;99.90;;;;;;6244096;22;50397;-81
2023/02/12 00:40:38;;;;;;;11.60;9.67;;;8.20;99.90;;;;;;6216890;22;20017;-78
2023/02/12 00:43:05;;;;;;;14.97;10.53;;;8.20;99.90;;;;;;6207236;22;36422;-79
2023/02/12 00:53:19;;;;;;;16.67;11.17;;;8.10;99.90;;;;;;6185627;22;20017;-80
2023/02/12 01:08:45;;;;;;;12.37;10.40;;;8.00;99.90;;;;;;6203314;22;20013;-80
2023/02/12 02:03:18;;;;;;;11.23;9.03;;;7.70;99.90;;;;;;6236226;22;20027;-76
2023/02/12 02:06:04;;;;;;;11.90;8.97;;;7.70;99.90;;;;;;6242220;22;35961;-76
2023/02/12 02:08:30;;;;;;;14.10;9.30;;;7.80;99.90;;;;;;6244666;22;47180;-77
2023/02/12 02:10:56;;;;;;;11.30;8.93;;;7.80;99.90;;;;;;6246576;22;37313;-77
2023/02/12 02:16:23;;;;;;;13.60;9.17;;;7.70;99.90;;;;;;6271535;22;38427;-76
2023/02/12 02:18:57;;;;;;;10.57;8.57;;;7.70;99.90;;;;;;6242916;22;39585;-77
2023/02/12 02:22:01;;;;;;;12.37;8.47;;;7.70;99.90;;;;;;6241611;22;36971;-77
2023/02/12 02:25:01;;;;;;;11.67;8.80;;;7.70;99.90;;;;;;6272344;22;47570;-77
2023/02/12 02:27:51;;;;;;;11.60;8.67;;;7.70;99.90;;;;;;6243062;22;47714;-77
2023/02/12 02:30:56;;;;;;;10.50;8.43;;;7.70;99.90;;;;;;6247229;22;37599;-77
2023/02/12 02:33:44;;;;;;;13.90;9.03;;;7.70;99.90;;;;;;6272327;22;48483;-77
2023/02/12 02:36:29;;;;;;;11.13;8.73;;;7.70;99.90;;;;;;6241242;22;38749;-77
2023/02/12 02:39:16;;;;;;;10.30;8.83;;;7.70;99.90;;;;;;6247429;22;37922;-77
2023/02/12 02:41:54;;;;;;;10.47;8.73;;;7.70;99.90;;;;;;6245600;22;46958;-77
2023/02/12 02:44:48;;;;;;;10.27;8.33;;;7.70;99.90;;;;;;6279093;22;38770;-77
2023/02/12 02:47:18;;;;;;;9.67;8.30;;;7.70;99.90;;;;;;6254120;22;37490;-77
2023/02/12 02:49:50;;;;;;;10.87;8.80;;;7.70;99.90;;;;;;6252910;22;36007;-77
2023/02/12 02:52:33;;;;;;;10.15;7.90;;;7.70;99.90;;;;;;6278444;22;38795;-76
2023/02/12 02:55:05;;;;;;;12.43;8.65;;;7.70;99.90;;;;;;6252299;22;37473;-77
2023/02/12 02:57:47;;;;;;;11.05;8.60;;;7.70;99.90;;;;;;6277880;22;47526;-77
2023/02/12 03:00:22;;;;;;;8.95;8.05;;;7.70;99.90;;;;;;6240526;22;36315;-78
2023/02/12 03:02:57;;;;;;;11.40;8.60;;;7.70;99.90;;;;;;6250503;22;39195;-77
2023/02/12 03:05:31;;;;;;;9.80;8.10;;;7.70;99.90;;;;;;6248734;22;37172;-77
2023/02/12 03:08:22;;;;;;;9.77;8.57;;;7.70;99.90;;;;;;6253865;22;36872;-77
2023/02/12 03:11:00;;;;;;;9.57;8.50;;;7.70;99.90;;;;;;6277426;22;48671;-77
2023/02/12 03:13:56;;;;;;;10.13;8.97;;;7.70;99.90;;;;;;6277879;22;38249;-76
2023/02/12 03:16:25;;;;;;;8.47;7.57;;;7.70;99.90;;;;;;6248501;22;38445;-77
2023/02/12 03:18:56;;;;;;;10.17;8.03;;;7.70;99.90;;;;;;6278797;22;37674;-77
2023/02/12 03:21:57;;;;;;;11.23;8.10;;;7.70;99.90;;;;;;6251882;22;37318;-77
2023/02/12 03:24:30;;;;;;;10.50;8.33;;;7.70;99.90;;;;;;6225722;22;39236;-77
2023/02/12 03:27:02;;;;;;;8.83;7.53;;;7.70;99.90;;;;;;6281432;22;38513;-77
2023/02/12 03:29:29;;;;;;;8.95;7.63;;;7.70;99.90;;;;;;6250976;22;47770;-76
2023/02/12 03:32:04;;;;;;;10.63;7.80;;;7.60;99.90;;;;;;6280738;22;38325;-77
2023/02/12 03:34:49;;;;;;;8.50;7.43;;;7.70;99.90;;;;;;6249136;22;47106;-77
2023/02/12 03:37:34;;;;;;;9.73;7.67;;;7.60;99.90;;;;;;6252061;22;39840;-76
2023/02/12 03:40:07;;;;;;;8.20;7.40;;;7.70;99.90;;;;;;6281632;22;37771;-77
2023/02/12 03:43:13;;;;;;;9.23;6.90;;;7.60;99.90;;;;;;6254241;22;47241;-77
2023/02/12 03:45:44;;;;;;;11.37;7.60;;;7.70;99.90;;;;;;6099141;23;46808;-77
2023/02/12 03:48:15;;;;;;;8.40;7.13;;;7.60;99.90;;;;;;6258524;22;38810;-77
2023/02/12 03:51:10;;;;;;;7.90;7.20;;;7.60;99.90;;;;;;6254099;22;38078;-77
2023/02/12 03:53:36;;;;;;;8.43;7.57;;;7.70;99.90;;;;;;6279453;22;48598;-76
2023/02/12 03:56:08;;;;;;;9.20;7.73;;;7.60;99.90;;;;;;6281334;22;39446;-77
2023/02/12 03:58:36;;;;;;;;;;;7.60;99.90;;;;;;6286928;22;48264;-77
2023/02/12 04:01:02;;;;;;;9.17;8.27;;;7.60;99.90;;;;;;6287570;22;38460;-78
2023/02/12 04:03:29;;;;;;;9.27;6.80;;;7.60;99.90;;;;;;6288034;22;48843;-77
2023/02/12 04:05:55;;;;;;;7.43;6.63;;;7.60;99.90;;;;;;6288408;22;39518;-77
2023/02/12 04:08:23;;;;;;;9.80;7.13;;;7.60;99.90;;;;;;6257813;22;37284;-77
2023/02/12 04:11:12;;;;;;;8.10;7.00;;;7.60;99.90;;;;;;6255963;22;38527;-77
2023/02/12 04:13:59;;;;;;;9.37;7.63;;;7.60;99.90;;;;;;6282580;22;48705;-77
2023/02/12 04:16:39;;;;;;;8.73;6.93;;;7.60;99.90;;;;;;6254168;22;37762;-77
2023/02/12 04:19:07;;;;;;;7.00;6.30;;;7.70;99.90;;;;;;6288751;22;38690;-77
2023/02/12 04:21:42;;;;;;;8.57;6.60;;;7.70;99.90;;;;;;6290538;22;39341;-77
2023/02/12 04:24:21;;;;;;;11.43;7.20;;;7.80;99.90;;;;;;6259873;22;36539;-77
2023/02/12 04:26:58;;;;;;;8.97;6.63;;;7.80;99.90;;;;;;6258686;22;37500;-77
2023/02/12 04:29:39;;;;;;;8.43;6.47;;;7.90;99.90;;;;;;6283149;22;38454;-77
2023/02/12 04:32:16;;;;;;;7.13;6.47;;;7.90;99.90;;;;;;6288649;22;38216;-77
2023/02/12 04:34:57;;;;;;;7.93;6.43;;;8.00;99.90;;;;;;6262305;22;36562;-77
2023/02/12 04:38:05;;;;;;;10.83;7.17;;;8.00;99.90;;;;;;6285368;22;39381;-77
2023/02/12 04:40:32;;;;;;;8.70;6.53;;;8.00;99.90;;;;;;6240252;22;48208;-77
2023/02/12 04:42:58;;;;;;;7.53;6.03;;;8.00;99.90;;;;;;6264677;22;38221;-77
2023/02/12 04:45:30;;;;;;;8.17;6.57;;;8.00;99.90;;;;;;6287943;22;37774;-78
2023/02/12 04:47:56;;;;;;;10.73;6.70;;;8.00;99.90;;;;;;6288271;22;38869;-77
2023/02/12 04:50:23;;;;;;;9.83;6.83;;;8.00;99.90;;;;;;6282302;22;38927;-76
2023/02/12 04:52:49;;;;;;;8.07;6.23;;;8.00;99.90;;;;;;6260948;22;37057;-77
2023/02/12 04:55:15;;;;;;;10.07;6.83;;;8.00;99.90;;;;;;6283138;22;37329;-77
2023/02/12 04:57:41;;;;;;;7.13;6.43;;;7.90;99.90;;;;;;6263120;22;38830;-77
2023/02/12 05:00:13;;;;;;;7.90;6.93;;;7.90;99.90;;;;;;6263237;22;40069;-77
2023/02/12 05:02:39;;;;;;;8.00;6.33;;;7.90;99.90;;;;;;6262066;22;47056;-78
2023/02/12 05:05:05;;;;;;;6.87;6.20;;;7.90;99.90;;;;;;6263796;22;36296;-77
2023/02/12 05:07:31;;;;;;;9.07;5.90;;;7.80;99.90;;;;;;6261788;22;40545;-77
2023/02/12 05:09:57;;;;;;;7.47;6.07;;;7.70;99.90;;;;;;6261621;22;38379;-77
2023/02/12 05:12:23;;;;;;;8.27;5.83;;;7.70;99.90;;;;;;6259122;22;36985;-77
2023/02/12 05:14:50;;;;;;;9.67;7.17;;;7.60;99.90;;;;;;6290065;22;37092;-77
2023/02/12 05:17:16;;;;;;;8.40;7.07;;;7.70;99.90;;;;;;6261027;22;37814;-77
2023/02/12 05:19:42;;;;;;;8.17;7.00;;;7.70;99.90;;;;;;6288825;22;38075;-77
2023/02/12 05:22:08;;;;;;;9.03;7.13;;;7.70;99.90;;;;;;6256844;22;36833;-77
2023/02/12 05:24:34;;;;;;;7.87;6.53;;;7.70;99.90;;;;;;6261060;22;35962;-77
2023/02/12 05:27:00;;;;;;;7.43;6.67;;;7.70;99.90;;;;;;6287928;22;38314;-77
2023/02/12 05:29:26;;;;;;;8.40;7.47;;;7.70;99.90;;;;;;6284795;22;47218;-77
2023/02/12 05:31:54;;;;;;;8.60;7.70;;;7.70;99.90;;;;;;6287362;22;37972;-77
2023/02/12 05:34:21;;;;;;;9.50;7.83;;;7.70;99.90;;;;;;6257729;22;36006;-77
2023/02/12 05:36:47;;;;;;;7.80;6.37;;;7.70;99.90;;;;;;6256154;22;37391;-77
2023/02/12 05:39:13;;;;;;;8.23;6.97;;;7.70;99.90;;;;;;6256927;22;37495;-76
2023/02/12 05:41:39;;;;;;;8.73;7.30;;;7.70;99.90;;;;;;6286329;22;38164;-76
2023/02/12 05:44:05;;;;;;;8.60;7.40;;;7.70;99.90;;;;;;6258194;22;36448;-77
2023/02/12 05:46:32;;;;;;;8.53;7.40;;;7.70;99.90;;;;;;6257932;22;38372;-76
2023/02/12 05:48:58;;;;;;;8.33;7.43;;;7.60;99.90;;;;;;6284972;22;38747;-77
2023/02/12 05:51:26;;;;;;;10.10;8.00;;;7.70;99.90;;;;;;6257283;22;38899;-77
2023/02/12 05:53:57;;;;;;;8.10;7.20;;;7.60;99.90;;;;;;6248906;22;35916;-77
2023/02/12 05:56:26;;;;;;;9.73;7.20;;;7.60;99.90;;;;;;6273191;22;39833;-77
2023/02/12 05:58:56;;;;;;;9.60;7.90;;;7.60;99.90;;;;;;6246699;22;37373;-77
2023/02/12 06:01:25;;;;;;;8.93;7.63;;;7.60;99.90;;;;;;6279531;22;38929;-77
2023/02/12 06:03:51;;;;;;;8.00;7.23;;;7.60;99.90;;;;;;6258954;22;35967;-77
2023/02/12 06:06:17;;;;;;;9.10;7.33;;;7.80;99.90;;;;;;6284844;22;39430;-77
2023/02/12 06:08:47;;;;;;;8.17;7.37;;;7.70;99.90;;;;;;6255435;22;37609;-77
2023/02/12 06:11:14;;;;;;;8.43;7.47;;;7.70;99.90;;;;;;6247309;22;38158;-77
2023/02/12 06:13:40;;;;;;;8.87;7.77;;;7.70;99.90;;;;;;6270840;22;37228;-77
2023/02/12 06:16:15;;;;;;;8.10;7.30;;;7.60;99.90;;;;;;6245073;22;38811;-77
2023/02/12 06:18:41;;;;;;;8.00;7.20;;;7.60;99.90;;;;;;6283756;22;38146;-77
2023/02/12 06:21:07;;;;;;;8.97;7.63;;;7.60;99.90;;;;;;6252962;22;36882;-77
2023/02/12 06:23:33;;;;;;;8.73;7.30;;;7.60;99.90;;;;;;6253753;22;35804;-77
2023/02/12 06:25:59;;;;;;;9.47;7.83;;;7.60;99.90;;;;;;6252199;22;37665;-77
2023/02/12 06:28:25;;;;;;;8.10;7.03;;;7.60;99.90;;;;;;6251262;22;37625;-77
2023/02/12 06:30:51;;;;;;;9.70;7.60;;;7.60;99.90;;;;;;6252679;22;37078;-77
2023/02/12 06:33:17;;;;;;;9.87;8.40;;;7.50;99.90;;;;;;6252285;22;36105;-77
2023/02/12 06:35:43;;;;;;;9.63;8.60;;;7.50;99.90;;;;;;6282490;22;38765;-77
2023/02/12 06:38:10;;;;;;;8.77;7.87;;;7.60;99.90;;;;;;6255355;22;36970;-77
2023/02/12 06:40:36;;;;;;;10.93;8.53;;;7.60;99.90;;;;;;6256971;22;36920;-77
2023/02/12 06:43:02;;;;;;;10.57;8.40;;;7.60;99.90;;;;;;6287190;22;37629;-78
2023/02/12 06:45:28;;;;;;;12.97;9.70;;;7.60;99.90;;;;;;6259131;22;37972;-77
2023/02/12 06:47:54;;;;;;;10.77;8.80;;;7.60;99.90;;;;;;6286244;22;38324;-77
2023/02/12 06:50:20;;;;;;;9.30;8.17;;;7.50;99.90;;;;;;6282377;22;41549;-77
2023/02/12 06:52:46;;;;;;;9.73;8.67;;;7.50;99.90;;;;;;6259837;22;35970;-77
2023/02/12 06:55:13;;;;;;;10.57;9.27;;;7.50;99.90;;;;;;6259640;22;37892;-77
2023/02/12 06:57:39;;;;;;;9.93;8.10;;;7.50;99.90;;;;;;6261504;22;37786;-77
2023/02/12 07:00:05;;;;;;;11.73;9.67;;;7.40;99.90;;;;;;6260812;22;36850;-77
2023/02/12 07:02:31;;;;;;;9.97;8.97;;;7.40;99.90;;;;;;6254300;22;36181;-77
2023/02/12 07:04:57;;;;;;;9.10;8.23;;;7.40;99.90;;;;;;6250755;22;37382;-77
2023/02/12 07:07:23;;;;;;;8.97;8.17;;;7.40;99.90;;;;;;6248092;22;37030;-77
2023/02/12 07:09:50;;;;;;;10.47;9.37;;;7.50;99.90;;;;;;6250642;22;38447;-77
2023/02/12 07:12:16;;;;;;;12.43;8.63;;;7.40;99.90;;;;;;6272556;22;38008;-77
2023/02/12 07:14:42;;;;;;;13.70;8.43;;;7.50;99.90;;;;;;6248075;22;37529;-77
2023/02/12 07:17:08;;;;;;;10.63;8.60;;;7.50;99.90;;;;;;6243964;22;37111;-77
2023/02/12 07:19:35;;;;;;;9.87;8.50;;;7.50;99.90;;;;;;6245374;22;37427;-77
2023/02/12 07:22:02;;;;;;;8.83;7.60;;;7.40;99.90;;;;;;6247719;22;36220;-77
2023/02/12 07:24:28;;;;;;;9.60;8.03;;;7.40;99.90;;;;;;6275784;22;39349;-79
2023/02/12 07:26:54;;;;;;;12.37;9.60;;;7.40;99.90;;;;;;6246488;22;38896;-77
2023/02/12 07:29:20;;;;;;;10.70;8.10;;;7.40;99.90;;;;;;6245927;22;37020;-77
2023/02/12 07:31:46;;;;;;;11.00;9.07;;;7.40;99.90;;;;;;6244999;22;37636;-77
2023/02/12 07:34:12;;;;;;;10.10;9.00;;;7.40;99.90;;;;;;6246240;22;37629;-77
2023/02/12 07:36:39;;;;;;;12.53;10.20;;;7.40;99.90;;;;;;6247863;22;37150;-77
2023/02/12 07:39:05;;;;;;;10.40;9.40;;;7.40;99.90;;;;;;6245774;22;37257;-77
2023/02/12 07:41:34;;;;;;;12.80;10.10;;;7.40;99.90;;;;;;6245406;22;36813;-77
2023/02/12 07:44:05;;;;;;;12.83;10.47;;;7.40;99.90;;;;;;6247275;22;37790;-77
2023/02/12 07:46:34;;;;;;;13.57;9.67;;;7.40;99.90;;;;;;6277759;22;47952;-77
2023/02/12 07:49:04;;;;;;;11.13;8.77;;;7.40;99.90;;;;;;6250674;22;37947;-77
2023/02/12 07:51:31;;;;;;;13.53;10.10;;;7.50;99.90;;;;;;6244119;22;47756;-77
2023/02/12 07:53:59;;;;;;;10.47;9.33;;;7.40;99.90;;;;;;6277217;22;39915;-77
2023/02/12 07:56:32;;;;;;;13.43;9.20;;;7.50;99.90;;;;;;6244512;22;39456;-77
2023/02/12 07:59:04;;;;;;;14.30;10.23;;;7.50;99.90;;;;;;6248736;22;36812;-77
2023/02/12 08:01:36;;;;;;;12.60;9.75;;;7.50;99.90;;;;;;6246359;22;48355;-77
2023/02/12 08:04:07;;;;;;;13.77;10.33;;;7.50;99.90;;;;;;6246253;22;38854;-77
2023/02/12 08:06:36;;;;;;;14.10;9.97;;;7.50;99.90;;;;;;6274655;22;38112;-77
2023/02/12 08:09:05;;;;;;;10.67;9.57;;;7.60;99.90;;;;;;6246538;22;37131;-78
2023/02/12 08:11:32;;;;;;;12.47;10.20;;;7.60;99.90;;;;;;6246981;22;36761;-77
2023/02/12 08:13:59;;;;;;;11.73;9.27;;;7.70;99.90;;;;;;6248167;22;37758;-78
2023/02/12 08:16:27;;;;;;;12.33;9.67;;;7.60;99.90;;;;;;6247039;22;37697;-77
2023/02/12 08:18:54;;;;;;;12.67;10.77;;;7.60;99.90;;;;;;6240112;22;36890;-77
2023/02/12 08:21:23;;;;;;;11.77;10.10;;;7.70;99.90;;;;;;6272140;22;36912;-78
2023/02/12 08:23:50;;;;;;;11.93;10.17;;;7.70;99.90;;;;;;6246337;22;39099;-78
2023/02/12 08:26:23;;;;;;;13.20;9.47;;;7.70;99.90;;;;;;6242642;22;38858;-77
2023/02/12 08:28:55;;;;;;;12.03;8.93;;;7.70;99.90;;;;;;6246588;22;37663;-77
2023/02/12 08:31:24;;;;;;;13.63;9.80;;;7.70;99.90;;;;;;6274573;22;37637;-77
2023/02/12 08:33:52;;;;;;;10.57;9.47;;;7.70;99.90;;;;;;6275968;22;38607;-77
2023/02/12 08:36:26;;;;;;;11.63;9.83;;;7.80;99.90;;;;;;6247485;22;37175;-77
2023/02/12 08:38:52;;;;;;;11.03;9.80;;;7.90;99.90;;;;;;6278802;22;37055;-76
2023/02/12 08:41:24;;;;;;;12.10;10.10;;;7.90;99.90;;;;;;6272620;22;37770;-77
2023/02/12 08:43:54;;;;;;;13.25;10.45;;;7.90;99.90;;;;;;6277780;22;39712;-77
2023/02/12 08:46:32;;;;;;;13.23;10.00;;;7.90;99.90;;;;;;6243109;22;38954;-77
2023/02/12 08:49:00;;;;;;;11.43;9.70;;;7.90;99.90;;;;;;6249964;22;37209;-78
2023/02/12 08:51:30;;;;;;;12.73;9.10;;;7.90;99.90;;;;;;6275308;22;47691;-78
2023/02/12 08:54:02;;;;;;;12.63;9.87;;;8.00;99.90;;;;;;6248390;22;39332;-76
2023/02/12 08:56:30;;;;;;;12.13;9.33;;;8.10;99.90;;;;;;6247375;22;47265;-76
2023/02/12 08:58:57;;;;;;;15.97;10.77;;;8.10;99.90;;;;;;6277246;22;37974;-77
2023/02/12 09:01:25;;;;;;;12.27;9.90;;;8.10;99.90;;;;;;6272765;22;37221;-76
2023/02/12 09:03:52;;;;;;;12.83;10.13;;;8.20;99.90;;;;;;6247141;22;38531;-77
2023/02/12 09:06:20;;;;;;;12.53;10.47;;;8.20;99.90;;;;;;6274869;22;38451;-76
2023/02/12 09:08:46;;;;;;;10.90;9.80;;;8.30;99.90;;;;;;6249905;22;37631;-77
2023/02/12 09:11:29;;;;;;;12.07;10.77;;;8.30;99.90;;;;;;6247449;22;37961;-76
2023/02/12 09:13:56;;;;;;;;;;;8.30;99.90;;;;;;6275397;22;38918;-77
2023/02/12 09:16:22;;;;;;;11.70;9.23;;;8.30;99.90;;;;;;6247663;22;38578;-77
2023/02/12 09:18:49;;;;;;;12.93;10.93;;;8.50;99.90;;;;;;6276299;22;38247;-77
2023/02/12 09:21:15;;;;;;;12.23;10.53;;;8.50;99.90;;;;;;6246263;22;37051;-77
2023/02/12 09:23:45;;;;;;;14.33;10.60;;;8.50;99.90;;;;;;6251059;22;38156;-78
2023/02/12 09:26:14;;;;;;;11.07;9.80;;;8.50;99.90;;;;;;6246803;22;37561;-78
2023/02/12 09:28:41;;;;;;;12.73;10.80;;;8.60;99.90;;;;;;6275537;22;39200;-77
2023/02/12 09:31:12;;;;;;;11.47;9.43;;;8.60;99.90;;;;;;6240383;22;37347;-77
2023/02/12 09:33:39;;;;;;;12.10;10.18;;;8.70;99.90;;;;;;6271809;22;39432;-76
2023/02/12 09:36:08;;;;;;;12.63;9.90;;;8.70;99.90;;;;;;6241862;22;37576;-77
2023/02/12 09:38:34;;;;;;;9.90;8.90;;;8.70;99.90;;;;;;6244789;22;36703;-76
2023/02/12 09:41:31;;;;;;;12.60;9.07;;;8.80;99.90;;;;;;6243598;22;37174;-77
2023/02/12 09:44:03;;;;;;;11.33;9.90;;;8.90;99.90;;;;;;6235831;22;47010;-77
2023/02/12 09:46:29;;;;;;;10.07;9.07;;;8.90;99.90;;;;;;6269930;22;49160;-77
2023/02/12 09:49:27;;;;;;;14.50;10.30;;;8.80;99.90;;;;;;6253945;22;37201;-77
2023/02/12 09:51:54;;;;;;;11.43;9.97;;;8.80;99.90;;;;;;6249104;22;47048;-77
2023/02/12 09:54:22;;;;;;;12.20;10.73;;;8.70;99.90;;;;;;6250709;22;37538;-77
2023/02/12 09:56:55;;;;;;;11.20;9.80;;;8.70;99.90;;;;;;6274239;22;38199;-77
2023/02/12 09:59:36;;;;;;;13.02;10.38;;;8.80;99.90;;;;;;6241390;22;37337;-77
2023/02/12 10:02:11;;;;;;;12.63;9.90;;;8.80;99.90;;;;;;6280135;22;38276;-78
2023/02/12 10:04:37;;;;;;;11.97;10.70;;;8.90;99.90;;;;;;6253008;22;37115;-77
2023/02/12 10:07:09;;;;;;;12.20;10.90;;;8.90;99.90;;;;;;6252736;22;38702;-78
2023/02/12 10:10:03;;;;;;;12.17;10.17;;;8.90;99.90;;;;;;6278644;22;38518;-77
2023/02/12 10:12:38;;;;;;;10.53;9.43;;;9.00;99.90;;;;;;6251738;22;48020;-76
2023/02/12 10:15:24;;;;;;;12.37;9.83;;;9.10;99.90;;;;;;6255019;22;37320;-77
2023/02/12 10:17:59;;;;;;;11.43;9.87;;;9.00;99.90;;;;;;6283657;22;49320;-77
2023/02/12 10:21:02;;;;;;;12.43;9.03;;;8.90;99.90;;;;;;6279118;22;38901;-79
2023/02/12 10:23:47;;;;;;;;;;;8.80;99.90;;;;;;6255767;22;47061;-78
2023/02/12 10:26:24;;;;;;;11.30;9.87;;;8.80;99.90;;;;;;6249925;22;38482;-78
2023/02/12 10:28:51;;;;;;;10.37;9.27;;;8.70;99.90;;;;;;6280966;22;38538;-78
2023/02/12 10:31:25;;;;;;;13.03;10.20;;;8.80;99.90;;;;;;6278282;22;37884;-77
2023/02/12 10:33:53;;;;;;;13.97;10.40;;;8.90;99.90;;;;;;6251834;22;37616;-77
2023/02/12 10:36:46;;;;;;;12.47;9.70;;;8.90;99.90;;;;;;6247965;22;37824;-77
2023/02/12 10:39:23;;;;;;;12.30;9.38;;;9.00;99.90;;;;;;6264427;22;39396;-78
2023/02/12 10:42:13;;;;;;;11.03;9.57;;;9.10;99.90;;;;;;6249433;22;37683;-78
2023/02/12 10:44:39;;;;;;;11.40;9.70;;;9.00;99.90;;;;;;6273637;22;49645;-77
2023/02/12 10:47:07;;;;;;;13.60;9.20;;;9.00;99.90;;;;;;6248534;22;39100;-78
2023/02/12 10:49:34;;;;;;;11.30;9.00;;;8.90;99.90;;;;;;6255633;22;37611;-78
2023/02/12 10:52:11;;;;;;;10.73;9.40;;;9.00;99.90;;;;;;6258918;22;36840;-77
2023/02/12 10:54:47;;;;;;;11.70;9.40;;;9.10;99.90;;;;;;6250548;22;47565;-77
2023/02/12 10:57:31;;;;;;;11.20;8.83;;;9.20;99.90;;;;;;6255784;22;39005;-77
2023/02/12 11:00:31;;;;;;;11.60;9.83;;;9.10;99.90;;;;;;6280506;22;38419;-77
2023/02/12 11:03:05;;;;;;;14.03;8.90;;;9.10;99.90;;;;;;6251460;22;47321;-79
2023/02/12 11:05:34;;;;;;;10.27;8.97;;;9.10;99.90;;;;;;6250101;22;47476;-77
2023/02/12 11:08:00;;;;;;;10.30;9.13;;;9.00;99.90;;;;;;6286470;22;38752;-78
2023/02/12 11:10:35;;;;;;;9.55;8.50;;;9.00;99.90;;;;;;6257788;22;47122;-78
2023/02/12 11:13:01;;;;;;;10.77;8.77;;;9.10;99.90;;;;;;6254252;22;38576;-78
2023/02/12 11:15:45;;;;;;;10.30;8.50;;;9.00;99.90;;;;;;6239150;22;47216;-79
2023/02/12 11:18:25;;;;;;;11.40;8.40;;;9.00;99.90;;;;;;6247404;22;38723;-77
2023/02/12 11:20:57;;;;;;;9.77;7.85;;;9.00;99.90;;;;;;6249970;22;37484;-78
2023/02/12 11:23:31;;;;;;;10.35;9.15;;;9.20;99.90;;;;;;6274112;22;38024;-78
2023/02/12 11:26:26;;;;;;;10.30;8.90;;;9.10;99.90;;;;;;6249581;22;37431;-77
2023/02/12 11:28:57;;;;;;;12.07;8.70;;;9.10;99.90;;;;;;6271385;22;49880;-78
2023/02/12 11:31:35;;;;;;;10.10;8.07;;;9.00;99.90;;;;;;6272302;22;39453;-77
2023/02/12 11:34:15;;;;;;;9.37;7.83;;;9.10;99.90;;;;;;6272949;22;38548;-79
2023/02/12 11:36:46;;;;;;;9.90;7.73;;;9.30;99.90;;;;;;6270793;22;36858;-77
2023/02/12 11:39:37;;;;;;;11.30;8.57;;;9.40;99.90;;;;;;6243233;22;38086;-76
2023/02/12 11:42:24;;;;;;;9.90;8.40;;;9.50;99.90;;;;;;6218981;22;37283;-79
2023/02/12 11:45:04;;;;;;;10.35;8.52;;;9.30;99.90;;;;;;6158912;23;38516;-80
2023/02/12 11:48:05;;;;;;;10.20;9.17;;;9.40;99.90;;;;;;6108520;23;47869;-80
2023/02/12 11:51:28;;;;;;;12.13;9.70;;;9.50;99.90;;;;;;6185702;22;47916;-79
2023/02/12 11:53:55;;;;;;;11.15;9.30;;;9.50;99.90;;;;;;6261228;22;49191;-80
2023/02/12 11:56:21;;;;;;;13.93;10.80;;;9.50;99.90;;;;;;6238099;22;37119;-80
2023/02/12 11:58:50;;;;;;;15.73;11.15;;;9.40;99.90;;;;;;6231422;22;37757;-79
2023/02/12 12:01:21;;;;;;;15.20;11.83;;;9.40;99.90;;;;;;6172558;22;38032;-80
2023/02/12 12:04:14;;;;;;;15.07;12.18;;;9.30;99.90;;;;;;6213238;22;37152;-80
2023/02/12 12:06:56;;;;;;;15.45;12.50;;;9.30;99.90;;;;;;6238980;22;47434;-80
2023/02/12 12:09:25;;;;;;;;;;;9.30;99.90;;;;;;6248432;22;36093;-80
2023/02/12 12:12:04;;;;;;;18.70;12.27;;;9.30;99.90;;;;;;6248840;22;39149;-80
2023/02/12 12:20:37;;;;;;;17.93;13.87;;;9.30;99.90;;;;;;6267654;22;50119;-80
2023/02/12 12:23:24;;;;;;;18.37;14.77;;;9.50;99.90;;;;;;6244865;22;40835;-79
2023/02/12 12:26:05;;;;;;;20.77;17.47;;;9.40;99.90;;;;;;6248457;22;38320;-80
2023/02/12 12:29:05;;;;;;;19.40;16.17;;;9.40;99.90;;;;;;6271539;22;49783;-80
2023/02/12 12:31:38;;;;;;;18.70;15.73;;;9.30;99.90;;;;;;6242721;22;47493;-80
2023/02/12 12:34:15;;;;;;;22.67;17.07;;;9.30;99.90;;;;;;6244720;22;38638;-80
2023/02/12 12:36:55;;;;;;;23.60;17.83;;;9.30;99.90;;;;;;6246457;22;38626;-80
2023/02/12 12:40:08;;;;;;;24.00;17.63;;;9.40;99.90;;;;;;6271454;22;39175;-80
2023/02/12 12:42:44;;;;;;;21.85;17.15;;;9.40;99.90;;;;;;6248572;22;49925;-81
2023/02/12 12:45:39;;;;;;;20.90;17.80;;;9.30;99.90;;;;;;6272558;22;40362;-81
2023/02/12 12:48:14;;;;;;;25.67;19.13;;;9.20;99.90;;;;;;6245764;22;38728;-80
2023/02/12 12:50:46;;;;;;;22.37;18.40;;;9.20;99.90;;;;;;6247931;22;37428;-80
2023/02/12 12:53:25;;;;;;;22.67;18.73;;;9.20;99.90;;;;;;6267836;22;38953;-80
2023/02/12 12:56:14;;;;;;;24.20;18.87;;;9.30;99.90;;;;;;6267498;22;40334;-77
2023/02/12 12:58:54;;;;;;;25.80;20.80;;;9.30;99.90;;;;;;6244460;22;48758;-77
2023/02/12 13:01:38;;;;;;;28.60;22.67;;;9.20;99.90;;;;;;6241325;22;38954;-79
2023/02/12 13:04:04;;;;;;;25.60;20.73;;;9.20;99.90;;;;;;6215017;22;36373;-80
2023/02/12 13:07:03;;;;;;;25.60;21.70;;;9.30;99.90;;;;;;6243487;22;38790;-79
2023/02/12 13:09:57;;;;;;;30.23;23.10;;;9.20;99.90;;;;;;6240983;22;48351;-79
2023/02/12 13:12:59;;;;;;;26.43;22.53;;;9.30;99.90;;;;;;6215862;22;37399;-77
2023/02/12 13:15:51;;;;;;;31.47;22.17;;;9.40;99.90;;;;;;6239955;22;37166;-77
2023/02/12 13:18:55;;;;;;;32.88;24.63;;;9.40;99.90;;;;;;6244956;22;39030;-77
2023/02/12 13:21:46;;;;;;;30.67;22.87;;;9.40;99.90;;;;;;6220343;22;37899;-77
2023/02/12 13:24:32;;;;;;;32.10;24.27;;;9.40;99.90;;;;;;6219185;22;37636;-79
2023/02/12 13:27:03;;;;;;;29.93;23.37;;;9.20;99.90;;;;;;6217309;22;37929;-79
2023/02/12 13:29:41;;;;;;;32.33;23.87;;;9.10;99.90;;;;;;6245572;22;48504;-79
2023/02/12 13:32:21;;;;;;;31.27;24.77;;;9.10;99.90;;;;;;6243070;22;39291;-79
2023/02/12 13:34:48;;;;;;;29.47;22.53;;;9.10;99.90;;;;;;6216625;22;36943;-79
2023/02/12 13:37:18;;;;;;;31.60;23.13;;;9.10;99.90;;;;;;6242218;22;37793;-79
2023/02/12 13:39:47;;;;;;;32.30;25.10;;;9.10;99.90;;;;;;6217972;22;37953;-79
2023/02/12 13:42:37;;;;;;;29.77;23.20;;;9.20;99.90;;;;;;6216150;22;37595;-77
2023/02/12 13:45:31;;;;;;;33.30;24.80;;;9.30;99.90;;;;;;6214938;22;38994;-77
2023/02/12 13:48:32;;;;;;;28.57;22.30;;;9.30;99.90;;;;;;6245778;22;49260;-76
2023/02/12 13:51:06;;;;;;;30.17;22.73;;;9.20;99.90;;;;;;6239990;22;47183;-77
2023/02/12 13:53:35;;;;;;;28.60;22.83;;;9.20;99.90;;;;;;6218065;22;47288;-76
2023/02/12 13:56:11;;;;;;;31.47;24.03;;;9.30;99.90;;;;;;6244907;22;39003;-77
2023/02/12 13:58:37;;;;;;;32.00;25.03;;;9.20;99.90;;;;;;6217052;22;47257;-77
2023/02/12 14:01:06;;;;;;;28.03;23.17;;;9.20;99.90;;;;;;6244837;22;38733;-77
2023/02/12 14:03:35;;;;;;;31.47;23.63;;;9.30;99.90;;;;;;6246652;22;38605;-76
2023/02/12 14:06:16;;;;;;;29.90;24.03;;;9.30;99.90;;;;;;6216282;22;37132;-77
2023/02/12 14:09:07;;;;;;;31.03;23.70;;;9.30;99.90;;;;;;6244536;22;48863;-77
2023/02/12 14:11:45;;;;;;;30.77;24.30;;;9.40;99.90;;;;;;6215743;22;47119;-77
2023/02/12 14:14:11;;;;;;;25.67;21.20;;;9.50;99.90;;;;;;6216050;22;38357;-78
2023/02/12 14:16:39;;;;;;;25.67;21.20;;;9.50;99.90;;;;;;6218514;22;37055;-76
2023/02/12 14:19:38;;;;;;;28.90;21.87;;;9.70;99.90;;;;;;6244349;22;38451;-77
2023/02/12 14:22:23;;;;;;;32.53;23.17;;;9.70;99.90;;;;;;6218722;22;37626;-78
2023/02/12 14:25:01;;;;;;;29.77;23.27;;;9.70;99.90;;;;;;6218705;22;37179;-77
2023/02/12 14:27:36;;;;;;;29.93;23.50;;;9.70;99.90;;;;;;6242935;22;47415;-77
2023/02/12 14:30:08;;;;;;;29.13;23.30;;;9.90;99.90;;;;;;6220512;22;36278;-78
2023/02/12 14:32:49;;;;;;;27.25;21.90;;;9.80;99.90;;;;;;6217541;22;47219;-77
2023/02/12 14:35:51;;;;;;;29.00;21.57;;;9.90;99.90;;;;;;6200896;22;37807;-79
2023/02/12 14:38:29;;;;;;;30.07;22.33;;;10.00;99.90;;;;;;6236435;22;47819;-79
2023/02/12 14:41:33;;;;;;;27.90;20.70;;;10.00;99.90;;;;;;6236348;22;36575;-79
2023/02/12 14:44:20;;;;;;;;;;;9.90;99.90;;;;;;6222780;22;47040;-79
2023/02/12 14:46:48;;;;;;;33.20;24.40;;;9.80;99.90;;;;;;6230543;22;47294;-79
2023/02/12 14:49:27;;;;;;;29.07;22.83;;;9.80;99.90;;;;;;6235914;22;37276;-79
2023/02/12 14:52:05;;;;;;;31.23;23.77;;;9.80;99.90;;;;;;6262541;22;38043;-80
2023/02/12 14:54:44;;;;;;;29.87;22.00;;;9.80;99.90;;;;;;6230857;22;47450;-79
2023/02/12 14:57:27;;;;;;;32.73;23.03;;;9.80;99.90;;;;;;6226980;22;37321;-79
2023/02/12 15:00:14;;;;;;;31.53;22.80;;;9.80;99.90;;;;;;6263014;22;38292;-79
2023/02/12 15:02:41;;;;;;;28.63;22.00;;;9.70;99.90;;;;;;6229734;22;46852;-79